Terminal Aerodrome Forecast
Issued by NWS

Home | Current Version | Previous Version | Text Only | Print | Product List | Glossary On
Versions: 1 2 3 4 5 6 7 8 9 10 11 12
000
FTUS42 TJSJ 291139
TAFNCM
TAF
TNCM 291139Z 2912/3012 10007KT P6SM VCSH SCT018 BKN035
     FM291400 12010KT P6SM FEW022 SCT040
     FM292300 09007KT P6SM SCT018=

USA.gov is the U.S. government's official web portal to all federal, state and local government web resources and services.